createdAt,value
2022-09-21T00:13:58.643Z,6.6
2022-09-21T00:23:59.338Z,6.7
2022-09-21T00:33:59.604Z,6.7
2022-09-21T00:44:00.448Z,6.5
2022-09-21T01:04:01.375Z,6.1
2022-09-21T01:14:02.428Z,6
2022-09-21T01:24:02.750Z,5.9
2022-09-21T01:34:03.040Z,5.7
2022-09-21T01:44:03.929Z,5.6
2022-09-21T01:54:04.753Z,5.6
2022-09-21T02:04:05.937Z,5.5
2022-09-21T02:14:06.804Z,5.4
2022-09-21T02:24:07.739Z,5.4
2022-09-21T02:34:08.835Z,5.6
2022-09-21T02:44:09.166Z,5.7
2022-09-21T02:54:09.385Z,5.9
2022-09-21T03:04:09.612Z,6
2022-09-21T03:14:10.678Z,6
2022-09-21T03:24:11.144Z,6
2022-09-21T03:34:11.989Z,6
2022-09-21T03:44:12.508Z,6.1
2022-09-21T03:54:12.833Z,6
2022-09-21T04:04:13.425Z,6
2022-09-21T04:14:14.444Z,5.9
2022-09-21T04:34:14.838Z,5.8
2022-09-21T04:44:15.175Z,5.7
2022-09-21T04:54:15.373Z,5.6
2022-09-21T05:04:15.863Z,5.6
2022-09-21T05:14:16.355Z,5.6
2022-09-21T05:24:16.917Z,5.5
2022-09-21T05:44:18.801Z,5.4
2022-09-21T05:54:19.029Z,5.4
2022-09-21T06:04:19.701Z,5.4
2022-09-21T06:14:20.118Z,5.6
2022-09-21T06:34:21.468Z,5.7
2022-09-21T06:44:22.483Z,5.7
2022-09-21T06:54:23.282Z,5.9
2022-09-21T07:04:25.193Z,6.1
2022-09-21T07:14:24.699Z,6.5
2022-09-21T07:24:25.340Z,6.8
2022-09-21T07:34:25.963Z,7.2
2022-09-21T07:44:26.996Z,7.7
2022-09-21T07:54:27.635Z,8.2
2022-09-21T08:14:28.084Z,9.7
2022-09-21T08:24:28.363Z,10.1
2022-09-21T08:34:29.134Z,11.1
2022-09-21T08:44:29.951Z,11.8
2022-09-21T08:54:30.371Z,12.9
2022-09-21T09:04:30.840Z,13.9
2022-09-21T09:14:31.457Z,14.5
2022-09-21T09:24:31.978Z,15.1
2022-09-21T09:34:33.043Z,15.2
2022-09-21T09:44:33.928Z,15.7
2022-09-21T09:54:34.595Z,16
2022-09-21T10:04:35.345Z,16.1
2022-09-21T10:14:36.230Z,16.5
2022-09-21T10:34:37.321Z,16.8
2022-09-21T10:44:38.311Z,16.1
2022-09-21T10:54:39.286Z,15.4
2022-09-21T11:04:40.300Z,15.4
2022-09-21T11:14:40.748Z,15.1
2022-09-21T11:24:41.061Z,15.1
2022-09-21T11:34:41.857Z,15.1
2022-09-21T11:44:42.246Z,15.3
2022-09-21T11:54:42.459Z,15.4
2022-09-21T12:04:43.324Z,15.4
2022-09-21T12:14:44.001Z,15.6
2022-09-21T12:24:44.673Z,15.8
2022-09-21T12:34:45.131Z,16.1
2022-09-21T12:44:46.045Z,16.1
2022-09-21T12:54:46.736Z,15.9
2022-09-21T13:04:46.976Z,16
2022-09-21T13:14:47.343Z,16.5
2022-09-21T13:34:49.377Z,16.5
2022-09-21T13:44:49.791Z,16.5
2022-09-21T13:54:50.088Z,16.7
2022-09-21T14:04:50.851Z,16.6
2022-09-21T14:14:51.596Z,16.5
2022-09-21T14:24:52.305Z,16.8
2022-09-21T14:34:53.365Z,17
2022-09-21T14:44:53.981Z,17.2
2022-09-21T15:04:56.028Z,17.6
2022-09-21T15:14:56.855Z,17.3
2022-09-21T15:24:57.108Z,17.3
2022-09-21T15:44:58.125Z,17
2022-09-21T15:54:58.783Z,17
2022-09-21T16:15:03.305Z,16.7
2022-09-21T16:25:00.239Z,16.7
2022-09-21T16:35:00.373Z,16.5
2022-09-21T16:45:00.943Z,16.1
2022-09-21T16:55:01.995Z,15.9
2022-09-21T17:05:02.667Z,15.7
2022-09-21T17:25:04.622Z,14.7
2022-09-21T17:45:05.641Z,13.4
2022-09-21T17:55:06.247Z,12.9
2022-09-21T18:15:07.529Z,12.1
2022-09-21T18:25:08.047Z,11.6
2022-09-21T18:35:08.441Z,11.3
2022-09-21T18:45:09.438Z,11
2022-09-21T18:55:10.258Z,10.8
2022-09-21T19:05:10.740Z,10.4
2022-09-21T19:15:12.383Z,10.1
2022-09-21T19:25:12.010Z,9.9
2022-09-21T19:35:12.391Z,9.7
2022-09-21T19:55:12.985Z,9.4
2022-09-21T20:05:13.236Z,9.3
2022-09-21T20:15:14.191Z,9.1
2022-09-21T20:25:14.717Z,8.8
2022-09-21T20:35:15.105Z,8.6
2022-09-21T20:45:15.219Z,8.4
2022-09-21T20:55:16.104Z,8.4
2022-09-21T21:05:16.501Z,8.2
2022-09-21T21:15:16.677Z,8
2022-09-21T21:25:17.631Z,8.1
2022-09-21T21:35:18.336Z,8
2022-09-21T21:45:19.377Z,8
2022-09-21T21:55:20.283Z,7.9
2022-09-21T22:05:21.024Z,7.7
2022-09-21T22:15:21.747Z,7.6
2022-09-21T22:25:22.719Z,7.6
2022-09-21T22:35:23.319Z,7.4
2022-09-21T22:45:23.911Z,7.3
2022-09-21T22:55:24.902Z,7.2
2022-09-21T23:05:25.965Z,7.2
2022-09-21T23:15:26.066Z,7
2022-09-21T23:25:26.829Z,6.9
2022-09-21T23:35:26.977Z,6.9
2022-09-21T23:45:27.510Z,6.8
2022-09-21T23:55:27.616Z,6.7
